createdAt,value
2023-02-24T00:10:35.904Z,4.50
2023-02-24T00:13:39.520Z,4.50
2023-02-24T00:20:05.381Z,4.00
2023-02-24T00:22:42.598Z,6.60
2023-02-24T00:25:32.941Z,3.50
2023-02-24T00:28:19.132Z,4.40
2023-02-24T00:31:11.116Z,4.00
2023-02-24T00:33:49.864Z,4.30
2023-02-24T00:36:24.813Z,4.30
2023-02-24T00:39:04.439Z,4.30
2023-02-24T00:42:07.315Z,4.30
2023-02-24T00:45:25.351Z,4.30
2023-02-24T00:51:37.466Z,4.30
2023-02-24T00:54:31.683Z,4.30
2023-02-24T00:57:06.620Z,4.20
2023-02-24T01:00:02.141Z,4.20
2023-02-24T01:05:13.443Z,4.20
2023-02-24T01:08:04.149Z,4.20
2023-02-24T01:11:34.875Z,4.20
2023-02-24T01:14:20.685Z,4.30
2023-02-24T01:17:17.395Z,4.20
2023-02-24T01:23:52.389Z,4.20
2023-02-24T01:26:52.683Z,4.20
2023-02-24T01:35:10.770Z,4.20
2023-02-24T01:37:58.581Z,4.20
2023-02-24T01:40:54.242Z,4.20
2023-02-24T01:44:32.458Z,4.20
2023-02-24T01:47:18.780Z,4.20
2023-02-24T01:50:09.832Z,4.20
2023-02-24T01:55:56.607Z,4.20
2023-02-24T01:58:31.891Z,4.20
2023-02-24T02:01:58.565Z,4.10
2023-02-24T02:05:26.824Z,4.60
2023-02-24T02:12:21.978Z,3.90
2023-02-24T02:15:13.728Z,4.10
2023-02-24T02:18:47.923Z,3.80
2023-02-24T02:24:26.360Z,4.20
2023-02-24T02:27:35.614Z,4.20
2023-02-24T02:30:50.695Z,4.10
2023-02-24T02:33:46.995Z,4.10
2023-02-24T02:36:55.482Z,4.10
2023-02-24T02:43:41.665Z,4.10
2023-02-24T02:46:39.189Z,5.80
2023-02-24T02:49:36.921Z,4.10
2023-02-24T02:52:30.089Z,4.10
2023-02-24T02:55:19.211Z,4.10
2023-02-24T02:58:06.803Z,4.10
2023-02-24T03:00:54.123Z,4.10
2023-02-24T03:03:50.736Z,4.10
2023-02-24T03:09:09.954Z,4.10
2023-02-24T03:12:04.368Z,4.10
2023-02-24T03:14:51.220Z,4.10
2023-02-24T03:17:56.905Z,4.00
2023-02-24T03:20:49.209Z,4.10
2023-02-24T03:23:32.014Z,4.10
2023-02-24T03:26:25.650Z,4.10
2023-02-24T03:29:09.530Z,4.10
2023-02-24T03:31:55.251Z,4.10
2023-02-24T03:34:57.030Z,3.70
2023-02-24T03:37:41.138Z,4.10
2023-02-24T03:40:18.375Z,4.20
2023-02-24T03:43:00.272Z,4.10
2023-02-24T03:46:05.760Z,4.20
2023-02-24T03:49:04.294Z,4.20
2023-02-24T03:52:01.141Z,4.20
2023-02-24T03:55:11.702Z,4.20
2023-02-24T04:02:17.832Z,4.40
2023-02-24T04:05:40.131Z,4.20
2023-02-24T04:08:20.090Z,4.20
2023-02-24T04:11:24.338Z,4.00
2023-02-24T04:14:27.745Z,3.70
2023-02-24T04:20:18.620Z,4.60
2023-02-24T04:23:19.509Z,4.10
2023-02-24T04:26:04.443Z,4.20
2023-02-24T04:32:41.947Z,4.20
2023-02-24T04:35:29.854Z,4.20
2023-02-24T04:40:52.505Z,4.20
2023-02-24T04:43:30.083Z,4.30
2023-02-24T04:46:11.278Z,4.30
2023-02-24T04:49:02.536Z,4.90
2023-02-24T04:51:46.004Z,3.00
2023-02-24T04:54:40.212Z,4.30
2023-02-24T04:57:15.481Z,4.30
2023-02-24T05:00:30.299Z,4.30
2023-02-24T05:03:33.803Z,4.20
2023-02-24T05:09:54.142Z,4.20
2023-02-24T05:12:34.822Z,4.20
2023-02-24T05:25:39.422Z,5.40
2023-02-24T05:28:58.057Z,2.90
2023-02-24T05:31:59.153Z,3.90
2023-02-24T05:35:54.565Z,3.90
2023-02-24T05:39:43.261Z,3.90
2023-02-24T05:43:20.158Z,3.80
2023-02-24T06:14:58.963Z,3.30
2023-02-24T06:30:21.577Z,5.90
2023-02-24T06:59:46.599Z,3.40
2023-02-24T07:02:51.376Z,3.30
2023-02-24T07:14:17.128Z,3.30
2023-02-24T07:19:41.435Z,2.80
2023-02-24T07:22:26.959Z,3.20
2023-02-24T07:30:13.382Z,3.30
2023-02-24T07:35:41.745Z,3.20
2023-02-24T07:38:25.468Z,3.30
2023-02-24T07:41:22.559Z,3.20
2023-02-24T07:45:13.377Z,3.20
2023-02-24T07:48:18.958Z,3.30
2023-02-24T07:51:57.579Z,3.20
2023-02-24T07:58:49.227Z,3.20
2023-02-24T08:01:51.311Z,3.80
2023-02-24T08:04:31.326Z,3.30
2023-02-24T08:12:45.827Z,3.30
2023-02-24T08:20:05.533Z,3.20
2023-02-24T08:28:57.199Z,3.30
2023-02-24T09:28:31.226Z,3.70
2023-02-24T09:36:29.076Z,4.10
2023-02-24T09:39:59.334Z,4.30
2023-02-24T09:42:47.477Z,4.40
2023-02-24T09:45:33.282Z,4.50
2023-02-24T09:55:50.508Z,4.90
2023-02-24T09:58:43.042Z,5.10
2023-02-24T10:02:20.628Z,6.30
2023-02-24T10:09:25.897Z,6.10
2023-02-24T10:12:20.399Z,5.50
2023-02-24T10:15:20.186Z,5.60
2023-02-24T10:18:09.891Z,5.70
2023-02-24T10:20:51.022Z,6.00
2023-02-24T10:23:33.026Z,7.30
2023-02-24T10:27:00.107Z,7.40
2023-02-24T10:30:01.348Z,7.60
2023-02-24T10:32:39.226Z,6.80
2023-02-24T10:35:41.961Z,6.20
2023-02-24T10:38:17.127Z,7.10
2023-02-24T10:40:58.404Z,7.50
2023-02-24T10:46:08.854Z,6.50
2023-02-24T10:49:18.706Z,6.40
2023-02-24T11:01:50.485Z,7.00
2023-02-24T11:05:09.219Z,7.00
2023-02-24T11:08:57.673Z,7.70
2023-02-24T11:15:47.018Z,8.10
2023-02-24T11:23:22.592Z,9.60
2023-02-24T11:25:58.429Z,7.20
2023-02-24T11:28:50.792Z,7.70
2023-02-24T11:31:54.399Z,7.70
2023-02-24T11:34:45.233Z,6.70
2023-02-24T11:37:19.314Z,7.80
2023-02-24T11:39:53.525Z,9.30
2023-02-24T11:42:37.485Z,8.00
2023-02-24T11:45:22.855Z,7.70
2023-02-24T11:47:56.649Z,7.80
2023-02-24T11:50:40.285Z,7.60
2023-02-24T11:53:20.290Z,8.00
2023-02-24T11:55:59.340Z,8.70
2023-02-24T11:58:47.919Z,9.00
2023-02-24T12:02:01.379Z,8.70
2023-02-24T12:05:02.151Z,9.40
2023-02-24T12:08:01.336Z,9.90
2023-02-24T12:10:50.721Z,10.30
2023-02-24T12:13:36.855Z,10.00
2023-02-24T12:16:37.614Z,10.40
2023-02-24T12:19:12.833Z,10.20
2023-02-24T12:21:44.693Z,10.50
2023-02-24T12:24:18.849Z,10.60
2023-02-24T12:27:06.569Z,10.90
2023-02-24T12:30:23.144Z,11.10
2023-02-24T12:33:01.867Z,11.00
2023-02-24T12:35:56.604Z,10.60
2023-02-24T12:38:55.333Z,9.70
2023-02-24T12:42:43.098Z,9.50
2023-02-24T12:53:48.750Z,7.80
2023-02-24T12:57:18.660Z,7.40
2023-02-24T13:04:20.426Z,7.60
2023-02-24T13:11:28.887Z,8.00
2023-02-24T13:15:11.992Z,8.10
2023-02-24T13:17:58.320Z,8.10
2023-02-24T13:24:30.760Z,7.90
2023-02-24T13:27:38.931Z,7.80
2023-02-24T13:32:13.191Z,7.90
2023-02-24T13:37:07.555Z,8.60
2023-02-24T13:39:38.444Z,8.00
2023-02-24T13:42:25.066Z,8.20
2023-02-24T13:45:10.374Z,8.00
2023-02-24T13:47:59.346Z,7.90
2023-02-24T13:50:53.019Z,7.90
2023-02-24T13:53:26.565Z,8.40
2023-02-24T13:56:17.265Z,9.30
2023-02-24T13:59:08.422Z,7.70
2023-02-24T14:02:27.784Z,7.60
2023-02-24T14:05:00.481Z,7.70
2023-02-24T14:08:26.720Z,7.60
2023-02-24T14:11:04.442Z,7.70
2023-02-24T14:13:34.326Z,11.20
2023-02-24T14:16:14.373Z,7.70
2023-02-24T14:18:41.873Z,7.20
2023-02-24T14:21:22.640Z,7.80
2023-02-24T14:24:12.257Z,8.30
2023-02-24T14:26:50.285Z,8.20
2023-02-24T14:29:20.998Z,7.80
2023-02-24T14:31:52.728Z,8.50
2023-02-24T14:34:31.092Z,7.80
2023-02-24T14:37:03.563Z,7.70
2023-02-24T14:39:40.065Z,8.40
2023-02-24T14:42:07.534Z,8.00
2023-02-24T14:50:04.411Z,7.10
2023-02-24T14:52:44.156Z,7.10
2023-02-24T14:55:21.748Z,7.70
2023-02-24T15:02:39.314Z,7.50
2023-02-24T15:05:11.738Z,7.60
2023-02-24T15:08:05.250Z,7.70
2023-02-24T15:13:15.107Z,7.90
2023-02-24T15:15:57.471Z,6.70
2023-02-24T15:18:29.142Z,7.70
2023-02-24T15:21:05.058Z,7.60
2023-02-24T15:23:35.203Z,7.50
2023-02-24T15:26:24.427Z,7.40
2023-02-24T15:28:59.301Z,7.40
2023-02-24T15:34:03.413Z,6.20
2023-02-24T15:36:35.698Z,8.10
2023-02-24T15:39:23.533Z,8.30
2023-02-24T15:41:52.476Z,7.40
2023-02-24T15:44:34.302Z,7.40
2023-02-24T15:47:19.135Z,8.10
2023-02-24T15:49:48.241Z,7.50
2023-02-24T15:52:20.033Z,7.40
2023-02-24T15:54:50.505Z,7.40
2023-02-24T15:57:18.940Z,7.40
2023-02-24T15:59:46.757Z,7.40
2023-02-24T16:02:19.800Z,7.40
2023-02-24T16:04:49.159Z,7.90
2023-02-24T16:07:19.787Z,7.30
2023-02-24T16:09:54.224Z,7.20
2023-02-24T16:12:34.240Z,7.30
2023-02-24T16:15:04.544Z,2.50
2023-02-24T16:17:35.602Z,7.10
2023-02-24T16:20:30.852Z,6.90
2023-02-24T16:23:23.515Z,6.80
2023-02-24T16:29:58.524Z,6.60
2023-02-24T16:32:31.864Z,5.90
2023-02-24T16:35:45.210Z,6.40
2023-02-24T16:41:25.620Z,6.20
2023-02-24T16:52:21.216Z,6.20
2023-02-24T16:55:30.077Z,5.70
2023-02-24T16:58:30.935Z,8.40
2023-02-24T17:05:33.174Z,5.50
2023-02-24T17:08:23.542Z,5.40
2023-02-24T17:12:07.772Z,4.40
2023-02-24T17:15:12.748Z,5.40
2023-02-24T17:22:32.310Z,5.40
2023-02-24T17:33:01.396Z,5.50
2023-02-24T17:39:17.760Z,5.50
2023-02-24T17:42:07.289Z,5.60
2023-02-24T17:45:21.740Z,5.60
2023-02-24T17:50:43.636Z,5.30
2023-02-24T17:54:45.385Z,5.20
2023-02-24T17:57:36.599Z,5.50
2023-02-24T18:01:05.552Z,4.20
2023-02-24T18:19:33.633Z,5.40
2023-02-24T18:28:45.982Z,5.30
2023-02-24T18:31:32.633Z,5.30
2023-02-24T18:34:45.242Z,5.30
2023-02-24T18:37:36.716Z,5.30
2023-02-24T18:40:16.588Z,5.30
2023-02-24T18:43:09.523Z,5.30
2023-02-24T18:46:24.805Z,5.40
2023-02-24T18:49:29.396Z,5.30
2023-02-24T18:53:28.428Z,5.30
2023-02-24T18:56:39.118Z,5.30
2023-02-24T19:05:31.126Z,4.50
2023-02-24T19:09:12.914Z,5.00
2023-02-24T20:23:46.968Z,4.60
2023-02-24T20:28:06.948Z,4.50
2023-02-24T20:36:40.881Z,4.50
2023-02-24T20:44:07.874Z,4.30
2023-02-24T20:47:13.699Z,4.30
2023-02-24T20:50:44.886Z,4.20
2023-02-24T20:54:09.505Z,4.20
2023-02-24T21:07:02.146Z,4.10
2023-02-24T21:10:35.219Z,4.00
2023-02-24T21:48:10.656Z,3.50
2023-02-24T21:58:33.878Z,3.20
2023-02-24T22:02:05.393Z,3.20
2023-02-24T22:04:45.347Z,3.20
2023-02-24T22:08:17.486Z,3.30
2023-02-24T22:22:52.835Z,3.50
2023-02-24T22:32:52.223Z,3.40
2023-02-24T22:46:23.886Z,3.40
2023-02-24T22:53:50.338Z,3.40
2023-02-24T22:56:48.911Z,3.40
2023-02-24T23:05:23.700Z,3.30
2023-02-24T23:08:35.250Z,3.30
2023-02-24T23:11:27.978Z,3.30
2023-02-24T23:18:06.090Z,2.90
2023-02-24T23:24:37.909Z,4.80
2023-02-24T23:27:17.016Z,3.30
2023-02-24T23:30:32.414Z,3.30
2023-02-24T23:33:35.700Z,3.30
2023-02-24T23:36:48.055Z,3.50
2023-02-24T23:39:59.898Z,3.20
2023-02-24T23:46:29.694Z,3.20
2023-02-24T23:49:08.484Z,3.20
2023-02-24T23:51:48.727Z,3.20
2023-02-24T23:54:29.221Z,3.20
2023-02-24T23:57:10.684Z,2.70
